sensor_id;sensor_type;location;lat;lon;timestamp;temperature;humidity
1830;DHT22;914;48.118;11.600;2023-03-21T00:01:42;11.80;92.10
1830;DHT22;914;48.118;11.600;2023-03-21T00:04:08;11.90;92.20
1830;DHT22;914;48.118;11.600;2023-03-21T00:06:34;11.80;92.10
1830;DHT22;914;48.118;11.600;2023-03-21T00:09:01;11.70;92.30
1830;DHT22;914;48.118;11.600;2023-03-21T00:11:26;11.70;92.40
1830;DHT22;914;48.118;11.600;2023-03-21T00:13:52;11.70;92.40
1830;DHT22;914;48.118;11.600;2023-03-21T00:16:26;11.70;92.50
1830;DHT22;914;48.118;11.600;2023-03-21T00:18:55;11.70;92.50
1830;DHT22;914;48.118;11.600;2023-03-21T00:21:22;11.70;92.70
1830;DHT22;914;48.118;11.600;2023-03-21T00:23:57;11.60;93.00
1830;DHT22;914;48.118;11.600;2023-03-21T00:26:24;11.70;93.00
1830;DHT22;914;48.118;11.600;2023-03-21T00:28:50;11.70;93.00
1830;DHT22;914;48.118;11.600;2023-03-21T00:31:16;11.80;92.80
1830;DHT22;914;48.118;11.600;2023-03-21T00:33:42;11.90;92.70
1830;DHT22;914;48.118;11.600;2023-03-21T00:36:08;11.90;92.50
1830;DHT22;914;48.118;11.600;2023-03-21T00:38:36;12.00;92.70
1830;DHT22;914;48.118;11.600;2023-03-21T00:41:07;11.90;92.40
1830;DHT22;914;48.118;11.600;2023-03-21T00:43:33;12.00;92.60
1830;DHT22;914;48.118;11.600;2023-03-21T00:45:59;12.10;92.60
1830;DHT22;914;48.118;11.600;2023-03-21T00:48:25;11.90;92.50
1830;DHT22;914;48.118;11.600;2023-03-21T00:50:53;11.90;92.90
1830;DHT22;914;48.118;11.600;2023-03-21T00:53:19;11.80;92.90
1830;DHT22;914;48.118;11.600;2023-03-21T00:55:46;11.80;93.20
1830;DHT22;914;48.118;11.600;2023-03-21T00:58:12;11.90;93.10
1830;DHT22;914;48.118;11.600;2023-03-21T01:00:38;11.90;93.10
1830;DHT22;914;48.118;11.600;2023-03-21T01:03:09;11.90;93.00
1830;DHT22;914;48.118;11.600;2023-03-21T01:05:43;12.00;93.00
1830;DHT22;914;48.118;11.600;2023-03-21T01:08:29;12.10;92.80
1830;DHT22;914;48.118;11.600;2023-03-21T01:10:55;12.00;92.90
1830;DHT22;914;48.118;11.600;2023-03-21T01:13:22;11.60;93.00
1830;DHT22;914;48.118;11.600;2023-03-21T01:15:51;11.10;93.70
1830;DHT22;914;48.118;11.600;2023-03-21T01:18:19;11.00;94.60
1830;DHT22;914;48.118;11.600;2023-03-21T01:20:46;11.30;94.50
1830;DHT22;914;48.118;11.600;2023-03-21T01:23:13;11.50;94.40
1830;DHT22;914;48.118;11.600;2023-03-21T01:25:40;11.60;94.00
1830;DHT22;914;48.118;11.600;2023-03-21T01:28:05;11.70;93.60
1830;DHT22;914;48.118;11.600;2023-03-21T01:30:31;11.80;93.60
1830;DHT22;914;48.118;11.600;2023-03-21T01:32:57;11.90;93.50
1830;DHT22;914;48.118;11.600;2023-03-21T01:35:23;11.90;93.30
1830;DHT22;914;48.118;11.600;2023-03-21T01:37:49;11.90;93.40
1830;DHT22;914;48.118;11.600;2023-03-21T01:40:23;11.70;93.40
1830;DHT22;914;48.118;11.600;2023-03-21T01:42:49;11.70;93.60
1830;DHT22;914;48.118;11.600;2023-03-21T01:48:33;11.80;93.40
1830;DHT22;914;48.118;11.600;2023-03-21T01:51:01;11.90;93.40
1830;DHT22;914;48.118;11.600;2023-03-21T01:53:29;11.90;93.10
1830;DHT22;914;48.118;11.600;2023-03-21T01:55:57;11.90;93.40
1830;DHT22;914;48.118;11.600;2023-03-21T01:58:24;12.00;93.30
1830;DHT22;914;48.118;11.600;2023-03-21T02:00:50;12.00;93.20
1830;DHT22;914;48.118;11.600;2023-03-21T02:03:17;12.10;93.10
1830;DHT22;914;48.118;11.600;2023-03-21T02:05:59;12.10;93.00
1830;DHT22;914;48.118;11.600;2023-03-21T02:08:25;12.00;93.00
1830;DHT22;914;48.118;11.600;2023-03-21T02:10:51;12.10;92.90
1830;DHT22;914;48.118;11.600;2023-03-21T02:13:17;12.10;92.80
1830;DHT22;914;48.118;11.600;2023-03-21T02:18:42;12.10;92.90
1830;DHT22;914;48.118;11.600;2023-03-21T02:24:15;12.30;92.60
1830;DHT22;914;48.118;11.600;2023-03-21T02:26:58;12.10;92.70
1830;DHT22;914;48.118;11.600;2023-03-21T02:29:45;11.90;92.90
1830;DHT22;914;48.118;11.600;2023-03-21T02:32:53;11.90;93.00
1830;DHT22;914;48.118;11.600;2023-03-21T02:35:49;11.90;93.10
1830;DHT22;914;48.118;11.600;2023-03-21T02:38:26;11.90;93.00
1830;DHT22;914;48.118;11.600;2023-03-21T02:41:11;11.90;93.10
1830;DHT22;914;48.118;11.600;2023-03-21T02:43:51;12.00;93.20
1830;DHT22;914;48.118;11.600;2023-03-21T02:46:25;12.00;93.10
1830;DHT22;914;48.118;11.600;2023-03-21T02:48:55;12.10;93.10
1830;DHT22;914;48.118;11.600;2023-03-21T02:51:22;12.20;93.00
1830;DHT22;914;48.118;11.600;2023-03-21T02:53:56;12.10;92.80
1830;DHT22;914;48.118;11.600;2023-03-21T02:56:23;12.20;92.90
1830;DHT22;914;48.118;11.600;2023-03-21T02:58:50;12.20;92.80
1830;DHT22;914;48.118;11.600;2023-03-21T03:01:16;12.20;92.80
1830;DHT22;914;48.118;11.600;2023-03-21T03:03:42;12.10;92.80
1830;DHT22;914;48.118;11.600;2023-03-21T03:06:19;12.10;93.00
1830;DHT22;914;48.118;11.600;2023-03-21T03:14:19;12.10;92.90
1830;DHT22;914;48.118;11.600;2023-03-21T03:25:13;11.90;93.10
1830;DHT22;914;48.118;11.600;2023-03-21T03:27:42;11.90;93.10
1830;DHT22;914;48.118;11.600;2023-03-21T03:30:10;11.90;93.20
1830;DHT22;914;48.118;11.600;2023-03-21T03:35:34;11.90;93.10
1830;DHT22;914;48.118;11.600;2023-03-21T03:38:04;11.90;93.10
1830;DHT22;914;48.118;11.600;2023-03-21T03:40:38;12.00;93.10
1830;DHT22;914;48.118;11.600;2023-03-21T03:43:10;12.00;93.10
1830;DHT22;914;48.118;11.600;2023-03-21T03:45:45;12.00;92.90
1830;DHT22;914;48.118;11.600;2023-03-21T03:51:06;12.00;92.90
1830;DHT22;914;48.118;11.600;2023-03-21T03:53:37;12.00;92.80
1830;DHT22;914;48.118;11.600;2023-03-21T03:56:07;12.00;92.80
1830;DHT22;914;48.118;11.600;2023-03-21T03:58:36;12.00;92.80
1830;DHT22;914;48.118;11.600;2023-03-21T04:01:04;12.10;92.60
1830;DHT22;914;48.118;11.600;2023-03-21T04:03:32;12.10;92.70
1830;DHT22;914;48.118;11.600;2023-03-21T04:05:58;12.20;92.70
1830;DHT22;914;48.118;11.600;2023-03-21T04:08:24;12.10;92.60
1830;DHT22;914;48.118;11.600;2023-03-21T04:10:49;12.10;92.60
1830;DHT22;914;48.118;11.600;2023-03-21T04:13:15;12.10;92.50
1830;DHT22;914;48.118;11.600;2023-03-21T04:15:41;12.10;92.60
1830;DHT22;914;48.118;11.600;2023-03-21T04:18:07;12.10;92.50
1830;DHT22;914;48.118;11.600;2023-03-21T04:20:33;11.90;92.40
1830;DHT22;914;48.118;11.600;2023-03-21T04:22:59;11.90;92.70
1830;DHT22;914;48.118;11.600;2023-03-21T04:25:24;11.90;92.70
1830;DHT22;914;48.118;11.600;2023-03-21T04:27:53;11.90;92.90
1830;DHT22;914;48.118;11.600;2023-03-21T04:30:20;12.00;92.80
1830;DHT22;914;48.118;11.600;2023-03-21T04:32:46;12.00;92.80
1830;DHT22;914;48.118;11.600;2023-03-21T04:35:19;12.00;92.70
1830;DHT22;914;48.118;11.600;2023-03-21T04:37:45;12.10;92.50
1830;DHT22;914;48.118;11.600;2023-03-21T04:40:11;12.10;92.40
1830;DHT22;914;48.118;11.600;2023-03-21T04:42:37;12.20;92.30
1830;DHT22;914;48.118;11.600;2023-03-21T04:45:03;12.10;92.30
1830;DHT22;914;48.118;11.600;2023-03-21T04:47:29;12.00;92.70
1830;DHT22;914;48.118;11.600;2023-03-21T04:49:55;12.10;92.60
1830;DHT22;914;48.118;11.600;2023-03-21T04:52:22;12.10;92.50
1830;DHT22;914;48.118;11.600;2023-03-21T04:54:47;12.00;92.60
1830;DHT22;914;48.118;11.600;2023-03-21T04:57:13;12.00;92.70
1830;DHT22;914;48.118;11.600;2023-03-21T04:59:39;12.00;92.70
1830;DHT22;914;48.118;11.600;2023-03-21T05:02:04;12.00;92.70
1830;DHT22;914;48.118;11.600;2023-03-21T05:04:30;12.10;92.70
1830;DHT22;914;48.118;11.600;2023-03-21T05:06:56;12.10;92.60
1830;DHT22;914;48.118;11.600;2023-03-21T05:09:22;12.10;92.70
1830;DHT22;914;48.118;11.600;2023-03-21T05:11:48;12.10;92.80
1830;DHT22;914;48.118;11.600;2023-03-21T05:14:18;12.00;92.70
1830;DHT22;914;48.118;11.600;2023-03-21T05:16:45;11.90;92.70
1830;DHT22;914;48.118;11.600;2023-03-21T05:19:18;11.90;93.10
1830;DHT22;914;48.118;11.600;2023-03-21T05:21:45;11.80;93.00
1830;DHT22;914;48.118;11.600;2023-03-21T05:24:19;11.80;93.10
1830;DHT22;914;48.118;11.600;2023-03-21T05:26:46;11.90;93.30
1830;DHT22;914;48.118;11.600;2023-03-21T05:29:17;11.90;93.30
1830;DHT22;914;48.118;11.600;2023-03-21T05:31:43;11.90;93.10
1830;DHT22;914;48.118;11.600;2023-03-21T05:34:10;11.90;93.10
1830;DHT22;914;48.118;11.600;2023-03-21T05:36:36;11.70;93.10
1830;DHT22;914;48.118;11.600;2023-03-21T05:39:02;11.70;93.20
1830;DHT22;914;48.118;11.600;2023-03-21T05:41:28;11.70;93.30
1830;DHT22;914;48.118;11.600;2023-03-21T05:43:53;11.70;93.60
1830;DHT22;914;48.118;11.600;2023-03-21T05:46:19;11.80;93.50
1830;DHT22;914;48.118;11.600;2023-03-21T05:48:45;11.80;93.30
1830;DHT22;914;48.118;11.600;2023-03-21T05:51:11;11.90;93.40
1830;DHT22;914;48.118;11.600;2023-03-21T05:53:36;12.00;93.00
1830;DHT22;914;48.118;11.600;2023-03-21T05:56:02;11.90;93.00
1830;DHT22;914;48.118;11.600;2023-03-21T05:58:28;11.90;93.30
1830;DHT22;914;48.118;11.600;2023-03-21T06:00:54;12.10;93.00
1830;DHT22;914;48.118;11.600;2023-03-21T06:03:20;11.90;93.00
1830;DHT22;914;48.118;11.600;2023-03-21T06:05:46;11.80;93.30
1830;DHT22;914;48.118;11.600;2023-03-21T06:08:11;11.80;93.20
1830;DHT22;914;48.118;11.600;2023-03-21T06:10:37;11.60;93.40
1830;DHT22;914;48.118;11.600;2023-03-21T06:13:03;11.70;93.60
1830;DHT22;914;48.118;11.600;2023-03-21T06:15:29;11.70;93.20
1830;DHT22;914;48.118;11.600;2023-03-21T06:17:54;11.60;93.50
1830;DHT22;914;48.118;11.600;2023-03-21T06:20:20;11.70;94.10
1830;DHT22;914;48.118;11.600;2023-03-21T06:22:46;12.00;93.40
1830;DHT22;914;48.118;11.600;2023-03-21T06:25:12;12.00;93.10
1830;DHT22;914;48.118;11.600;2023-03-21T06:27:38;12.30;92.60
1830;DHT22;914;48.118;11.600;2023-03-21T06:30:04;12.40;92.40
1830;DHT22;914;48.118;11.600;2023-03-21T06:32:30;12.30;92.40
1830;DHT22;914;48.118;11.600;2023-03-21T06:34:56;12.20;92.60
1830;DHT22;914;48.118;11.600;2023-03-21T06:37:22;12.20;92.80
1830;DHT22;914;48.118;11.600;2023-03-21T06:39:48;12.30;92.60
1830;DHT22;914;48.118;11.600;2023-03-21T06:42:14;12.60;92.00
1830;DHT22;914;48.118;11.600;2023-03-21T06:44:40;12.50;91.90
1830;DHT22;914;48.118;11.600;2023-03-21T06:47:06;12.50;91.90
1830;DHT22;914;48.118;11.600;2023-03-21T06:49:32;12.50;92.10
1830;DHT22;914;48.118;11.600;2023-03-21T06:51:58;12.30;92.10
1830;DHT22;914;48.118;11.600;2023-03-21T06:54:24;12.10;92.70
1830;DHT22;914;48.118;11.600;2023-03-21T06:56:50;11.90;93.30
1830;DHT22;914;48.118;11.600;2023-03-21T06:59:16;12.10;93.30
1830;DHT22;914;48.118;11.600;2023-03-21T07:01:42;12.20;93.00
1830;DHT22;914;48.118;11.600;2023-03-21T07:04:08;12.10;92.80
1830;DHT22;914;48.118;11.600;2023-03-21T07:06:35;12.20;92.90
1830;DHT22;914;48.118;11.600;2023-03-21T07:09:02;12.20;92.90
1830;DHT22;914;48.118;11.600;2023-03-21T07:11:30;12.30;92.80
1830;DHT22;914;48.118;11.600;2023-03-21T07:13:56;12.30;92.40
1830;DHT22;914;48.118;11.600;2023-03-21T07:16:22;12.40;92.60
1830;DHT22;914;48.118;11.600;2023-03-21T07:18:49;12.40;92.40
1830;DHT22;914;48.118;11.600;2023-03-21T07:21:15;12.40;92.50
1830;DHT22;914;48.118;11.600;2023-03-21T07:23:42;12.30;92.40
1830;DHT22;914;48.118;11.600;2023-03-21T07:26:08;12.40;92.50
1830;DHT22;914;48.118;11.600;2023-03-21T07:28:34;12.70;92.10
1830;DHT22;914;48.118;11.600;2023-03-21T07:31:04;12.70;91.10
1830;DHT22;914;48.118;11.600;2023-03-21T07:33:31;12.50;91.70
1830;DHT22;914;48.118;11.600;2023-03-21T07:35:58;12.20;91.70
1830;DHT22;914;48.118;11.600;2023-03-21T07:38:24;12.20;92.00
1830;DHT22;914;48.118;11.600;2023-03-21T07:40:50;12.30;92.20
1830;DHT22;914;48.118;11.600;2023-03-21T07:43:16;12.60;91.60
1830;DHT22;914;48.118;11.600;2023-03-21T07:45:42;12.60;91.50
1830;DHT22;914;48.118;11.600;2023-03-21T07:48:12;12.60;91.70
1830;DHT22;914;48.118;11.600;2023-03-21T07:50:41;12.80;91.60
1830;DHT22;914;48.118;11.600;2023-03-21T07:53:07;13.00;91.30
1830;DHT22;914;48.118;11.600;2023-03-21T07:55:33;13.20;91.30
1830;DHT22;914;48.118;11.600;2023-03-21T07:58:03;13.20;90.90
1830;DHT22;914;48.118;11.600;2023-03-21T08:00:29;13.10;91.10
1830;DHT22;914;48.118;11.600;2023-03-21T08:02:56;13.30;91.50
1830;DHT22;914;48.118;11.600;2023-03-21T08:05:28;13.50;91.20
1830;DHT22;914;48.118;11.600;2023-03-21T08:07:54;13.70;90.80
1830;DHT22;914;48.118;11.600;2023-03-21T08:10:20;13.70;90.70
1830;DHT22;914;48.118;11.600;2023-03-21T08:12:46;13.80;90.40
1830;DHT22;914;48.118;11.600;2023-03-21T08:15:13;13.80;90.70
1830;DHT22;914;48.118;11.600;2023-03-21T08:17:39;14.10;89.20
1830;DHT22;914;48.118;11.600;2023-03-21T08:20:06;14.10;88.80
1830;DHT22;914;48.118;11.600;2023-03-21T08:22:34;14.10;90.10
1830;DHT22;914;48.118;11.600;2023-03-21T08:25:02;14.00;89.70
1830;DHT22;914;48.118;11.600;2023-03-21T08:27:29;14.10;89.50
1830;DHT22;914;48.118;11.600;2023-03-21T08:29:56;14.20;89.70
1830;DHT22;914;48.118;11.600;2023-03-21T08:32:21;14.20;89.00
1830;DHT22;914;48.118;11.600;2023-03-21T08:35:00;14.10;88.00
1830;DHT22;914;48.118;11.600;2023-03-21T08:37:26;14.30;88.30
1830;DHT22;914;48.118;11.600;2023-03-21T08:39:53;14.70;88.40
1830;DHT22;914;48.118;11.600;2023-03-21T08:42:19;15.00;86.60
1830;DHT22;914;48.118;11.600;2023-03-21T08:44:45;14.80;85.90
1830;DHT22;914;48.118;11.600;2023-03-21T08:47:11;14.60;86.80
1830;DHT22;914;48.118;11.600;2023-03-21T08:49:37;14.60;87.20
1830;DHT22;914;48.118;11.600;2023-03-21T08:52:03;14.80;87.20
1830;DHT22;914;48.118;11.600;2023-03-21T08:54:30;14.80;87.20
1830;DHT22;914;48.118;11.600;2023-03-21T08:56:56;14.90;86.00
1830;DHT22;914;48.118;11.600;2023-03-21T08:59:21;15.00;86.10
1830;DHT22;914;48.118;11.600;2023-03-21T09:01:47;15.10;85.60
1830;DHT22;914;48.118;11.600;2023-03-21T09:04:13;14.70;86.40
1830;DHT22;914;48.118;11.600;2023-03-21T09:06:39;14.70;86.30
1830;DHT22;914;48.118;11.600;2023-03-21T09:09:11;14.70;85.50
1830;DHT22;914;48.118;11.600;2023-03-21T09:11:37;14.80;85.40
1830;DHT22;914;48.118;11.600;2023-03-21T09:14:03;14.50;85.80
1830;DHT22;914;48.118;11.600;2023-03-21T09:16:29;14.50;86.40
1830;DHT22;914;48.118;11.600;2023-03-21T09:18:55;14.80;85.60
1830;DHT22;914;48.118;11.600;2023-03-21T09:21:25;14.60;85.20
1830;DHT22;914;48.118;11.600;2023-03-21T09:23:52;14.70;85.20
1830;DHT22;914;48.118;11.600;2023-03-21T09:26:21;14.70;84.90
1830;DHT22;914;48.118;11.600;2023-03-21T09:28:47;14.70;86.00
1830;DHT22;914;48.118;11.600;2023-03-21T09:31:14;15.00;84.70
1830;DHT22;914;48.118;11.600;2023-03-21T09:33:42;15.10;84.40
1830;DHT22;914;48.118;11.600;2023-03-21T09:36:09;15.20;81.80
1830;DHT22;914;48.118;11.600;2023-03-21T09:38:42;15.30;83.10
1830;DHT22;914;48.118;11.600;2023-03-21T09:43:55;15.50;83.00
1830;DHT22;914;48.118;11.600;2023-03-21T09:46:40;15.60;83.10
1830;DHT22;914;48.118;11.600;2023-03-21T09:49:29;15.40;83.70
1830;DHT22;914;48.118;11.600;2023-03-21T09:51:58;15.20;83.70
1830;DHT22;914;48.118;11.600;2023-03-21T09:54:27;15.10;83.50
1830;DHT22;914;48.118;11.600;2023-03-21T09:56:57;15.20;83.50
1830;DHT22;914;48.118;11.600;2023-03-21T09:59:36;15.40;84.10
1830;DHT22;914;48.118;11.600;2023-03-21T10:05:32;15.90;82.60
1830;DHT22;914;48.118;11.600;2023-03-21T10:08:01;16.00;82.00
1830;DHT22;914;48.118;11.600;2023-03-21T10:10:50;15.70;82.00
1830;DHT22;914;48.118;11.600;2023-03-21T10:13:20;15.70;84.00
1830;DHT22;914;48.118;11.600;2023-03-21T10:15:47;15.80;84.00
1830;DHT22;914;48.118;11.600;2023-03-21T10:18:20;15.80;82.40
1830;DHT22;914;48.118;11.600;2023-03-21T10:20:49;15.60;82.30
1830;DHT22;914;48.118;11.600;2023-03-21T10:23:19;15.70;82.60
1830;DHT22;914;48.118;11.600;2023-03-21T10:25:48;15.20;83.00
1830;DHT22;914;48.118;11.600;2023-03-21T10:28:19;14.90;86.00
1830;DHT22;914;48.118;11.600;2023-03-21T10:30:50;15.40;85.30
1830;DHT22;914;48.118;11.600;2023-03-21T10:33:21;15.70;83.50
1830;DHT22;914;48.118;11.600;2023-03-21T10:35:52;16.50;80.90
1830;DHT22;914;48.118;11.600;2023-03-21T10:38:23;16.70;79.90
1830;DHT22;914;48.118;11.600;2023-03-21T10:40:49;16.60;79.60
1830;DHT22;914;48.118;11.600;2023-03-21T10:45:45;17.20;78.60
1830;DHT22;914;48.118;11.600;2023-03-21T10:48:11;17.00;78.10
1830;DHT22;914;48.118;11.600;2023-03-21T10:50:37;16.70;79.40
1830;DHT22;914;48.118;11.600;2023-03-21T10:53:20;16.70;78.90
1830;DHT22;914;48.118;11.600;2023-03-21T10:55:53;16.40;79.40
1830;DHT22;914;48.118;11.600;2023-03-21T10:58:25;16.20;79.40
1830;DHT22;914;48.118;11.600;2023-03-21T11:01:04;16.40;78.50
1830;DHT22;914;48.118;11.600;2023-03-21T11:03:35;16.40;79.30
1830;DHT22;914;48.118;11.600;2023-03-21T11:09:13;17.00;77.30
1830;DHT22;914;48.118;11.600;2023-03-21T11:14:39;17.00;77.80
1830;DHT22;914;48.118;11.600;2023-03-21T11:17:29;17.30;76.60
1830;DHT22;914;48.118;11.600;2023-03-21T11:20:03;17.30;75.60
1830;DHT22;914;48.118;11.600;2023-03-21T11:22:41;17.40;76.60
1830;DHT22;914;48.118;11.600;2023-03-21T11:25:17;17.70;75.50
1830;DHT22;914;48.118;11.600;2023-03-21T11:27:50;17.30;75.60
1830;DHT22;914;48.118;11.600;2023-03-21T11:30:23;17.90;76.80
1830;DHT22;914;48.118;11.600;2023-03-21T11:32:56;18.20;74.10
1830;DHT22;914;48.118;11.600;2023-03-21T11:35:26;18.20;74.30
1830;DHT22;914;48.118;11.600;2023-03-21T11:37:54;18.10;72.00
1830;DHT22;914;48.118;11.600;2023-03-21T11:40:32;18.10;75.70
1830;DHT22;914;48.118;11.600;2023-03-21T11:43:01;18.00;74.30
1830;DHT22;914;48.118;11.600;2023-03-21T11:45:32;18.90;73.40
1830;DHT22;914;48.118;11.600;2023-03-21T11:47:59;19.20;72.30
1830;DHT22;914;48.118;11.600;2023-03-21T11:50:32;19.60;73.50
1830;DHT22;914;48.118;11.600;2023-03-21T12:01:02;22.30;66.60
1830;DHT22;914;48.118;11.600;2023-03-21T12:06:27;21.40;63.60
1830;DHT22;914;48.118;11.600;2023-03-21T12:09:08;20.70;65.20
1830;DHT22;914;48.118;11.600;2023-03-21T12:11:51;22.70;65.40
1830;DHT22;914;48.118;11.600;2023-03-21T12:20:58;26.00;58.30
1830;DHT22;914;48.118;11.600;2023-03-21T12:23:46;26.60;55.40
1830;DHT22;914;48.118;11.600;2023-03-21T12:26:29;27.20;56.20
1830;DHT22;914;48.118;11.600;2023-03-21T12:29:13;27.00;55.10
1830;DHT22;914;48.118;11.600;2023-03-21T12:31:47;28.10;55.70
1830;DHT22;914;48.118;11.600;2023-03-21T12:34:51;27.40;54.00
1830;DHT22;914;48.118;11.600;2023-03-21T12:37:31;26.80;55.50
1830;DHT22;914;48.118;11.600;2023-03-21T12:44:19;25.70;54.90
1830;DHT22;914;48.118;11.600;2023-03-21T12:46:57;25.20;55.70
1830;DHT22;914;48.118;11.600;2023-03-21T12:52:15;24.10;55.30
1830;DHT22;914;48.118;11.600;2023-03-21T12:55:25;25.00;56.60
1830;DHT22;914;48.118;11.600;2023-03-21T12:57:41;25.90;56.20
1830;DHT22;914;48.118;11.600;2023-03-21T13:00:22;26.00;55.20
1830;DHT22;914;48.118;11.600;2023-03-21T13:03:03;26.50;54.20
1830;DHT22;914;48.118;11.600;2023-03-21T13:05:42;26.90;54.30
1830;DHT22;914;48.118;11.600;2023-03-21T13:10:45;26.20;52.80
1830;DHT22;914;48.118;11.600;2023-03-21T13:16:12;22.50;54.10
1830;DHT22;914;48.118;11.600;2023-03-21T13:21:28;22.80;53.80
1830;DHT22;914;48.118;11.600;2023-03-21T13:24:04;24.60;53.40
1830;DHT22;914;48.118;11.600;2023-03-21T13:26:39;23.40;53.70
1830;DHT22;914;48.118;11.600;2023-03-21T13:29:22;22.60;54.60
1830;DHT22;914;48.118;11.600;2023-03-21T13:31:51;22.10;54.80
1830;DHT22;914;48.118;11.600;2023-03-21T13:34:21;21.70;55.50
1830;DHT22;914;48.118;11.600;2023-03-21T13:36:48;21.20;56.30
1830;DHT22;914;48.118;11.600;2023-03-21T13:39:26;20.50;56.90
1830;DHT22;914;48.118;11.600;2023-03-21T13:41:53;19.70;58.60
1830;DHT22;914;48.118;11.600;2023-03-21T13:44:31;19.80;59.50
1830;DHT22;914;48.118;11.600;2023-03-21T13:47:03;20.30;59.70
1830;DHT22;914;48.118;11.600;2023-03-21T13:49:32;20.00;59.40
1830;DHT22;914;48.118;11.600;2023-03-21T13:52:01;19.50;60.00
1830;DHT22;914;48.118;11.600;2023-03-21T13:54:28;19.70;58.40
1830;DHT22;914;48.118;11.600;2023-03-21T13:56:59;19.70;59.00
1830;DHT22;914;48.118;11.600;2023-03-21T14:02:21;20.10;59.00
1830;DHT22;914;48.118;11.600;2023-03-21T14:04:57;19.30;59.10
1830;DHT22;914;48.118;11.600;2023-03-21T14:07:35;19.60;60.00
1830;DHT22;914;48.118;11.600;2023-03-21T14:10:18;19.50;59.10
1830;DHT22;914;48.118;11.600;2023-03-21T14:12:45;20.20;57.90
1830;DHT22;914;48.118;11.600;2023-03-21T14:15:16;19.80;57.10
1830;DHT22;914;48.118;11.600;2023-03-21T14:17:55;19.70;58.70
1830;DHT22;914;48.118;11.600;2023-03-21T14:20:28;19.80;59.00
1830;DHT22;914;48.118;11.600;2023-03-21T14:22:55;19.40;59.10
1830;DHT22;914;48.118;11.600;2023-03-21T14:25:23;19.30;58.40
1830;DHT22;914;48.118;11.600;2023-03-21T14:27:54;20.10;59.60
1830;DHT22;914;48.118;11.600;2023-03-21T14:33:02;20.80;59.60
1830;DHT22;914;48.118;11.600;2023-03-21T14:35:30;20.70;58.40
1830;DHT22;914;48.118;11.600;2023-03-21T14:38:04;20.70;58.00
1830;DHT22;914;48.118;11.600;2023-03-21T14:40:30;20.60;57.40
1830;DHT22;914;48.118;11.600;2023-03-21T14:42:55;20.90;58.50
1830;DHT22;914;48.118;11.600;2023-03-21T14:45:29;20.40;57.30
1830;DHT22;914;48.118;11.600;2023-03-21T14:48:12;20.60;57.40
1830;DHT22;914;48.118;11.600;2023-03-21T14:50:53;20.00;56.60
1830;DHT22;914;48.118;11.600;2023-03-21T14:53:21;19.80;57.20
1830;DHT22;914;48.118;11.600;2023-03-21T14:55:59;19.90;58.50
1830;DHT22;914;48.118;11.600;2023-03-21T14:58:25;19.70;59.00
1830;DHT22;914;48.118;11.600;2023-03-21T15:00:55;19.60;58.90
1830;DHT22;914;48.118;11.600;2023-03-21T15:03:22;19.50;60.60
1830;DHT22;914;48.118;11.600;2023-03-21T15:05:51;19.80;58.90
1830;DHT22;914;48.118;11.600;2023-03-21T15:08:20;20.00;58.00
1830;DHT22;914;48.118;11.600;2023-03-21T15:13:32;19.50;58.60
1830;DHT22;914;48.118;11.600;2023-03-21T15:15:59;19.40;58.50
1830;DHT22;914;48.118;11.600;2023-03-21T15:18:30;19.30;58.60
1830;DHT22;914;48.118;11.600;2023-03-21T15:21:01;19.30;58.90
1830;DHT22;914;48.118;11.600;2023-03-21T15:23:29;18.60;58.80
1830;DHT22;914;48.118;11.600;2023-03-21T15:25:56;18.50;60.00
1830;DHT22;914;48.118;11.600;2023-03-21T15:28:24;18.60;60.70
1830;DHT22;914;48.118;11.600;2023-03-21T15:30:51;18.60;60.40
1830;DHT22;914;48.118;11.600;2023-03-21T15:33:18;18.70;60.70
1830;DHT22;914;48.118;11.600;2023-03-21T15:35:53;18.50;61.10
1830;DHT22;914;48.118;11.600;2023-03-21T15:38:29;18.50;63.30
1830;DHT22;914;48.118;11.600;2023-03-21T15:46:53;18.80;62.20
1830;DHT22;914;48.118;11.600;2023-03-21T15:49:25;18.90;62.90
1830;DHT22;914;48.118;11.600;2023-03-21T15:51:55;18.60;63.40
1830;DHT22;914;48.118;11.600;2023-03-21T15:59:48;18.50;64.10
1830;DHT22;914;48.118;11.600;2023-03-21T16:02:28;18.40;64.10
1830;DHT22;914;48.118;11.600;2023-03-21T16:07:23;18.20;64.80
1830;DHT22;914;48.118;11.600;2023-03-21T16:09:49;18.30;64.60
1830;DHT22;914;48.118;11.600;2023-03-21T16:12:18;18.10;64.60
1830;DHT22;914;48.118;11.600;2023-03-21T16:14:44;17.60;65.50
1830;DHT22;914;48.118;11.600;2023-03-21T16:19:58;17.70;65.90
1830;DHT22;914;48.118;11.600;2023-03-21T16:22:24;17.80;65.80
1830;DHT22;914;48.118;11.600;2023-03-21T16:24:51;17.90;66.70
1830;DHT22;914;48.118;11.600;2023-03-21T16:27:17;17.90;66.20
1830;DHT22;914;48.118;11.600;2023-03-21T16:29:44;18.10;67.50
1830;DHT22;914;48.118;11.600;2023-03-21T16:32:16;18.00;66.70
1830;DHT22;914;48.118;11.600;2023-03-21T16:34:42;18.00;66.90
1830;DHT22;914;48.118;11.600;2023-03-21T16:37:11;18.00;67.70
1830;DHT22;914;48.118;11.600;2023-03-21T16:39:37;18.00;67.40
1830;DHT22;914;48.118;11.600;2023-03-21T16:42:03;18.00;67.00
1830;DHT22;914;48.118;11.600;2023-03-21T16:44:29;18.00;68.40
1830;DHT22;914;48.118;11.600;2023-03-21T16:46:57;17.50;68.30
1830;DHT22;914;48.118;11.600;2023-03-21T16:49:25;17.50;69.20
1830;DHT22;914;48.118;11.600;2023-03-21T16:51:52;17.60;69.20
1830;DHT22;914;48.118;11.600;2023-03-21T16:54:21;17.90;68.00
1830;DHT22;914;48.118;11.600;2023-03-21T16:56:53;18.00;68.30
1830;DHT22;914;48.118;11.600;2023-03-21T16:59:19;17.80;68.50
1830;DHT22;914;48.118;11.600;2023-03-21T17:01:45;17.70;69.30
1830;DHT22;914;48.118;11.600;2023-03-21T17:04:12;17.80;68.90
1830;DHT22;914;48.118;11.600;2023-03-21T17:06:52;18.00;68.80
1830;DHT22;914;48.118;11.600;2023-03-21T17:09:20;17.80;68.80
1830;DHT22;914;48.118;11.600;2023-03-21T17:11:47;17.90;68.80
1830;DHT22;914;48.118;11.600;2023-03-21T17:14:13;17.70;68.80
1830;DHT22;914;48.118;11.600;2023-03-21T17:16:42;17.70;69.40
1830;DHT22;914;48.118;11.600;2023-03-21T17:19:17;17.70;69.30
1830;DHT22;914;48.118;11.600;2023-03-21T17:21:44;17.60;69.30
1830;DHT22;914;48.118;11.600;2023-03-21T17:24:10;17.70;69.40
1830;DHT22;914;48.118;11.600;2023-03-21T17:26:36;17.70;69.50
1830;DHT22;914;48.118;11.600;2023-03-21T17:29:02;17.70;69.60
1830;DHT22;914;48.118;11.600;2023-03-21T17:31:32;17.80;69.60
1830;DHT22;914;48.118;11.600;2023-03-21T17:33:58;17.90;69.30
1830;DHT22;914;48.118;11.600;2023-03-21T17:36:33;17.70;69.50
1830;DHT22;914;48.118;11.600;2023-03-21T17:38:59;17.70;69.50
1830;DHT22;914;48.118;11.600;2023-03-21T17:41:25;17.60;70.00
1830;DHT22;914;48.118;11.600;2023-03-21T17:43:52;17.50;70.00
1830;DHT22;914;48.118;11.600;2023-03-21T17:46:20;17.60;70.30
1830;DHT22;914;48.118;11.600;2023-03-21T17:48:50;17.60;70.00
1830;DHT22;914;48.118;11.600;2023-03-21T17:51:16;17.50;70.50
1830;DHT22;914;48.118;11.600;2023-03-21T17:53:43;17.50;70.60
1830;DHT22;914;48.118;11.600;2023-03-21T17:56:14;17.50;70.70
1830;DHT22;914;48.118;11.600;2023-03-21T17:58:40;17.60;70.80